createdAt,value
2023-03-28T00:01:09.376Z,0.20
2023-03-28T00:03:40.158Z,0.10
2023-03-28T00:06:11.935Z,0.20
2023-03-28T00:08:41.319Z,0.10
2023-03-28T00:11:12.708Z,0.10
2023-03-28T00:13:41.524Z,0.10
2023-03-28T00:16:13.684Z,0.20
2023-03-28T00:18:43.121Z,0.00
2023-03-28T00:21:23.343Z,0.10
2023-03-28T00:23:53.619Z,0.00
2023-03-28T00:26:24.708Z,0.00
2023-03-28T00:28:53.345Z,-0.10
2023-03-28T00:31:24.066Z,-0.10
2023-03-28T00:33:53.799Z,-0.20
2023-03-28T00:36:26.403Z,-0.20
2023-03-28T00:38:55.182Z,-0.20
2023-03-28T00:41:24.872Z,-0.20
2023-03-28T00:43:54.808Z,-0.20
2023-03-28T00:46:29.845Z,-0.20
2023-03-28T00:49:03.828Z,-0.20
2023-03-28T00:51:35.542Z,-0.20
2023-03-28T00:54:06.439Z,-0.20
2023-03-28T00:56:38.767Z,-0.30
2023-03-28T00:59:11.532Z,-0.30
2023-03-28T01:01:41.534Z,-0.30
2023-03-28T01:04:10.477Z,-0.40
2023-03-28T01:06:42.812Z,-0.40
2023-03-28T01:09:16.759Z,-0.40
2023-03-28T01:11:51.202Z,-0.40
2023-03-28T01:14:23.828Z,-0.40
2023-03-28T01:16:57.700Z,-0.50
2023-03-28T01:19:43.842Z,-0.50
2023-03-28T01:22:56.641Z,-0.40
2023-03-28T01:25:55.493Z,-0.40
2023-03-28T01:28:40.083Z,-0.50
2023-03-28T01:31:40.048Z,-0.50
2023-03-28T01:35:18.195Z,-0.60
2023-03-28T01:37:57.176Z,-0.60
2023-03-28T01:40:34.597Z,-0.60
2023-03-28T01:43:26.195Z,-0.70
2023-03-28T01:45:59.438Z,-0.70
2023-03-28T01:48:41.469Z,-0.70
2023-03-28T01:51:18.676Z,-0.70
2023-03-28T01:53:53.285Z,-0.70
2023-03-28T01:56:26.725Z,-0.80
2023-03-28T01:59:07.490Z,-0.80
2023-03-28T02:02:09.065Z,-0.80
2023-03-28T02:04:40.285Z,-0.80
2023-03-28T02:07:11.114Z,-0.80
2023-03-28T02:10:04.100Z,-0.80
2023-03-28T02:13:07.954Z,-0.70
2023-03-28T02:15:50.568Z,-0.90
2023-03-28T02:18:34.198Z,-0.80
2023-03-28T02:21:24.399Z,-0.90
2023-03-28T02:24:09.835Z,-0.90
2023-03-28T02:26:56.282Z,-1.00
2023-03-28T02:29:43.317Z,-1.00
2023-03-28T02:32:21.908Z,-1.00
2023-03-28T02:34:53.187Z,-0.90
2023-03-28T02:37:38.138Z,-0.90
2023-03-28T02:40:34.467Z,-0.90
2023-03-28T02:43:20.475Z,-0.90
2023-03-28T02:46:15.490Z,-0.80
2023-03-28T02:48:56.090Z,-0.90
2023-03-28T02:51:34.787Z,-0.80
2023-03-28T02:54:17.248Z,-0.90
2023-03-28T02:57:01.457Z,-0.70
2023-03-28T02:59:43.781Z,-0.80
2023-03-28T03:02:17.397Z,-0.80
2023-03-28T03:04:46.760Z,-0.70
2023-03-28T03:07:18.006Z,-0.70
2023-03-28T03:09:46.806Z,-0.70
2023-03-28T03:12:15.541Z,-0.70
2023-03-28T03:14:45.272Z,-0.60
2023-03-28T03:17:40.260Z,-0.70
2023-03-28T03:20:10.024Z,-0.70
2023-03-28T03:22:40.366Z,-0.70
2023-03-28T03:25:11.452Z,-0.70
2023-03-28T03:27:55.125Z,-0.80
2023-03-28T03:30:25.047Z,-0.80
2023-03-28T03:33:16.967Z,-0.80
2023-03-28T03:35:50.126Z,-0.80
2023-03-28T03:38:20.610Z,-0.80
2023-03-28T03:40:48.939Z,-0.80
2023-03-28T03:43:17.635Z,-0.80
2023-03-28T03:45:48.146Z,-0.80
2023-03-28T03:48:16.641Z,-0.80
2023-03-28T03:50:44.982Z,-0.90
2023-03-28T03:53:16.607Z,-0.90
2023-03-28T03:55:51.938Z,-0.90
2023-03-28T03:58:20.994Z,-0.90
2023-03-28T04:00:52.562Z,-1.00
2023-03-28T04:03:39.118Z,-1.00
2023-03-28T04:06:08.273Z,-1.00
2023-03-28T04:08:37.384Z,-1.00
2023-03-28T04:11:07.904Z,-1.00
2023-03-28T04:13:40.943Z,-0.90
2023-03-28T04:16:13.733Z,-0.90
2023-03-28T04:18:52.925Z,-0.90
2023-03-28T04:21:27.519Z,-0.90
2023-03-28T04:24:01.713Z,-0.80
2023-03-28T04:26:40.865Z,-0.80
2023-03-28T04:29:13.008Z,-0.90
2023-03-28T04:31:50.712Z,-0.80
2023-03-28T04:34:45.854Z,-0.90
2023-03-28T04:37:19.702Z,-0.80
2023-03-28T04:39:55.773Z,-0.80
2023-03-28T04:42:46.947Z,-0.70
2023-03-28T04:45:38.175Z,-0.80
2023-03-28T04:48:20.057Z,-0.80
2023-03-28T04:50:48.880Z,-0.80
2023-03-28T04:53:17.897Z,-0.80
2023-03-28T04:56:18.230Z,-0.80
2023-03-28T04:58:46.690Z,-0.80
2023-03-28T05:01:15.941Z,-0.80
2023-03-28T05:04:13.376Z,-0.80
2023-03-28T05:06:46.371Z,-0.90
2023-03-28T05:09:16.450Z,-0.90
2023-03-28T05:11:45.275Z,-1.00
2023-03-28T05:14:13.756Z,-0.80
2023-03-28T05:16:49.637Z,-1.10
2023-03-28T05:19:38.454Z,-1.10
2023-03-28T05:22:11.466Z,-1.10
2023-03-28T05:24:43.400Z,-1.10
2023-03-28T05:27:18.630Z,-0.90
2023-03-28T05:29:47.056Z,-1.10
2023-03-28T05:32:15.627Z,-1.00
2023-03-28T05:34:45.362Z,-1.10
2023-03-28T05:37:13.947Z,-1.10
2023-03-28T05:39:50.065Z,-1.10
2023-03-28T05:42:18.472Z,-1.10
2023-03-28T05:44:47.305Z,-1.00
2023-03-28T05:47:19.128Z,-0.90
2023-03-28T05:49:49.011Z,-0.80
2023-03-28T05:52:17.753Z,-0.70
2023-03-28T05:54:50.607Z,-0.70
2023-03-28T05:57:22.418Z,-0.60
2023-03-28T05:59:51.568Z,-0.60
2023-03-28T06:02:24.434Z,-0.50
2023-03-28T06:05:00.289Z,-0.40
2023-03-28T06:07:41.428Z,-0.30
2023-03-28T06:10:16.116Z,-0.20
2023-03-28T06:12:55.340Z,-0.10
2023-03-28T06:15:24.839Z,0.00
2023-03-28T06:17:53.258Z,0.10
2023-03-28T06:20:23.256Z,0.30
2023-03-28T06:22:55.419Z,0.40
2023-03-28T06:25:23.846Z,0.60
2023-03-28T06:27:52.442Z,0.70
2023-03-28T06:30:21.030Z,0.90
2023-03-28T06:32:52.958Z,1.10
2023-03-28T06:35:22.864Z,1.10
2023-03-28T06:37:51.630Z,1.30
2023-03-28T06:40:26.711Z,1.40
2023-03-28T06:42:55.526Z,1.50
2023-03-28T06:45:35.371Z,1.50
2023-03-28T06:48:06.079Z,1.70
2023-03-28T06:51:14.723Z,1.80
2023-03-28T06:53:46.582Z,1.90
2023-03-28T06:56:16.765Z,2.00
2023-03-28T06:58:45.296Z,2.10
2023-03-28T07:01:16.113Z,2.20
2023-03-28T07:03:59.792Z,2.40
2023-03-28T07:06:30.369Z,2.60
2023-03-28T07:08:59.836Z,2.80
2023-03-28T07:11:49.177Z,3.00
2023-03-28T07:14:18.897Z,3.20
2023-03-28T07:16:47.287Z,3.30
2023-03-28T07:19:15.676Z,3.60
2023-03-28T07:21:49.021Z,3.80
2023-03-28T07:24:17.553Z,3.90
2023-03-28T07:27:15.338Z,4.10
2023-03-28T07:29:46.654Z,4.30
2023-03-28T07:32:16.174Z,4.50
2023-03-28T07:34:46.969Z,4.70
2023-03-28T07:37:22.447Z,4.90
2023-03-28T07:40:14.173Z,5.00
2023-03-28T07:42:43.264Z,5.00
2023-03-28T07:45:12.910Z,5.20
2023-03-28T07:47:41.599Z,5.10
2023-03-28T07:50:10.645Z,5.20
2023-03-28T07:52:45.481Z,5.20
2023-03-28T07:55:15.006Z,5.50
2023-03-28T07:57:48.132Z,5.70
2023-03-28T08:00:28.635Z,6.10
2023-03-28T08:03:18.860Z,6.50
2023-03-28T08:05:51.796Z,6.90
2023-03-28T08:08:23.847Z,7.00
2023-03-28T08:11:13.422Z,7.20
2023-03-28T08:13:41.973Z,7.40
2023-03-28T08:16:19.493Z,7.60
2023-03-28T08:18:56.980Z,7.70
2023-03-28T08:21:33.019Z,7.80
2023-03-28T08:24:03.250Z,7.60
2023-03-28T08:26:37.615Z,7.70
2023-03-28T08:29:08.680Z,8.00
2023-03-28T08:31:37.153Z,8.10
2023-03-28T08:34:11.499Z,8.10
2023-03-28T08:36:43.322Z,8.30
2023-03-28T08:39:25.930Z,8.40
2023-03-28T08:42:27.966Z,8.50
2023-03-28T08:45:13.449Z,8.70
2023-03-28T08:47:50.577Z,8.60
2023-03-28T08:50:26.540Z,8.70
2023-03-28T08:52:56.625Z,8.80
2023-03-28T08:55:31.966Z,8.80
2023-03-28T08:58:01.982Z,8.60
2023-03-28T09:00:32.183Z,8.80
2023-03-28T09:03:01.234Z,8.80
2023-03-28T09:05:37.427Z,8.80
2023-03-28T09:08:23.985Z,8.70
2023-03-28T09:11:03.375Z,8.70
2023-03-28T09:13:40.808Z,8.70
2023-03-28T09:16:29.210Z,8.90
2023-03-28T09:19:21.189Z,9.10
2023-03-28T09:22:15.126Z,9.10
2023-03-28T09:25:00.323Z,9.00
2023-03-28T09:27:37.825Z,8.90
2023-03-28T09:30:19.191Z,8.90
2023-03-28T09:32:49.523Z,8.90
2023-03-28T09:35:22.866Z,8.80
2023-03-28T09:37:55.031Z,8.90
2023-03-28T09:40:27.533Z,9.10
2023-03-28T09:43:25.877Z,9.20
2023-03-28T09:46:22.809Z,9.40
2023-03-28T09:48:55.280Z,9.70
2023-03-28T09:51:27.541Z,9.50
2023-03-28T09:53:56.387Z,9.40
2023-03-28T09:56:28.398Z,9.50
2023-03-28T09:59:11.683Z,9.60
2023-03-28T10:01:49.186Z,9.50
2023-03-28T10:04:36.437Z,9.30
2023-03-28T10:07:33.638Z,9.00
2023-03-28T10:10:21.202Z,9.00
2023-03-28T10:12:59.188Z,9.20
2023-03-28T10:15:41.746Z,9.30
2023-03-28T10:18:21.131Z,9.20
2023-03-28T10:21:11.889Z,9.40
2023-03-28T10:23:45.439Z,9.40
2023-03-28T10:26:21.995Z,9.20
2023-03-28T10:28:54.632Z,9.40
2023-03-28T10:31:30.622Z,9.60
2023-03-28T10:34:28.796Z,9.70
2023-03-28T10:37:01.244Z,9.50
2023-03-28T10:40:00.121Z,9.70
2023-03-28T10:43:01.378Z,9.90
2023-03-28T10:45:52.752Z,10.20
2023-03-28T10:48:33.748Z,10.50
2023-03-28T10:51:14.638Z,10.70
2023-03-28T10:54:03.447Z,10.80
2023-03-28T10:56:39.168Z,11.30
2023-03-28T10:59:21.516Z,11.70
2023-03-28T11:02:24.140Z,11.90
2023-03-28T11:04:59.362Z,11.70
2023-03-28T11:07:36.737Z,11.80
2023-03-28T11:10:25.113Z,12.00
2023-03-28T11:13:12.260Z,11.90
2023-03-28T11:15:48.376Z,12.00
2023-03-28T11:18:36.418Z,12.10
2023-03-28T11:21:22.871Z,11.90
2023-03-28T11:24:03.527Z,12.00
2023-03-28T11:27:16.297Z,12.00
2023-03-28T11:29:50.827Z,12.00
2023-03-28T11:32:28.129Z,12.00
2023-03-28T11:35:08.144Z,12.00
2023-03-28T11:37:43.728Z,12.10
2023-03-28T11:40:21.302Z,12.30
2023-03-28T11:43:01.768Z,12.40
2023-03-28T11:45:49.454Z,12.30
2023-03-28T11:48:25.485Z,12.40
2023-03-28T11:51:03.810Z,12.40
2023-03-28T11:53:52.559Z,12.30
2023-03-28T11:56:32.968Z,12.10
2023-03-28T11:59:12.724Z,12.20
2023-03-28T12:01:45.695Z,12.20
2023-03-28T12:04:21.313Z,12.60
2023-03-28T12:07:03.229Z,12.90
2023-03-28T12:09:50.317Z,13.10
2023-03-28T12:12:23.717Z,12.80
2023-03-28T12:14:57.983Z,12.80
2023-03-28T12:17:49.200Z,12.80
2023-03-28T12:20:23.727Z,12.80
2023-03-28T12:22:57.475Z,12.60
2023-03-28T12:25:55.101Z,12.80
2023-03-28T12:28:30.549Z,12.90
2023-03-28T12:31:06.361Z,12.70
2023-03-28T12:33:45.838Z,12.90
2023-03-28T12:36:35.268Z,12.80
2023-03-28T12:39:20.095Z,12.80
2023-03-28T12:41:52.417Z,12.90
2023-03-28T12:44:25.928Z,12.70
2023-03-28T12:47:01.829Z,12.80
2023-03-28T12:49:41.720Z,12.70
2023-03-28T12:52:19.195Z,12.80
2023-03-28T12:54:59.585Z,12.90
2023-03-28T12:57:46.130Z,12.80
2023-03-28T13:00:37.173Z,12.70
2023-03-28T13:03:35.594Z,12.60
2023-03-28T13:06:15.493Z,12.50
2023-03-28T13:09:04.559Z,12.10
2023-03-28T13:11:41.018Z,12.20
2023-03-28T13:14:29.359Z,12.40
2023-03-28T13:17:01.459Z,12.50
2023-03-28T13:19:45.880Z,12.90
2023-03-28T13:22:32.933Z,13.20
2023-03-28T13:25:28.353Z,13.40
2023-03-28T13:27:58.159Z,13.60
2023-03-28T13:30:30.569Z,13.80
2023-03-28T13:33:02.076Z,13.90
2023-03-28T13:35:46.322Z,13.90
2023-03-28T13:38:25.929Z,13.90
2023-03-28T13:40:59.769Z,14.30
2023-03-28T13:43:39.500Z,14.50
2023-03-28T13:46:14.065Z,14.70
2023-03-28T13:48:50.703Z,14.60
2023-03-28T13:51:22.351Z,14.50
2023-03-28T13:53:50.871Z,14.50
2023-03-28T13:56:24.365Z,14.20
2023-03-28T13:58:55.420Z,14.30
2023-03-28T14:01:27.254Z,14.20
2023-03-28T14:03:57.085Z,14.10
2023-03-28T14:06:27.355Z,14.00
2023-03-28T14:08:58.080Z,14.00
2023-03-28T14:11:31.699Z,14.00
2023-03-28T14:14:09.325Z,14.00
2023-03-28T14:16:40.296Z,13.90
2023-03-28T14:19:10.260Z,13.80
2023-03-28T14:21:39.157Z,14.00
2023-03-28T14:24:08.884Z,13.90
2023-03-28T14:26:39.022Z,13.80
2023-03-28T14:29:11.473Z,13.80
2023-03-28T14:31:46.264Z,14.00
2023-03-28T14:34:19.041Z,13.80
2023-03-28T14:36:59.383Z,13.90
2023-03-28T14:39:30.393Z,13.80
2023-03-28T14:42:01.601Z,13.80
2023-03-28T14:44:31.439Z,13.50
2023-03-28T14:47:01.402Z,13.30
2023-03-28T14:49:30.280Z,13.20
2023-03-28T14:52:00.070Z,13.10
2023-03-28T14:54:32.691Z,13.00
2023-03-28T14:57:03.959Z,13.00
2023-03-28T14:59:38.130Z,13.00
2023-03-28T15:02:18.575Z,13.00
2023-03-28T15:04:48.034Z,13.00
2023-03-28T15:07:24.010Z,13.00
2023-03-28T15:10:09.057Z,13.00
2023-03-28T15:12:47.735Z,13.00
2023-03-28T15:15:20.310Z,12.80
2023-03-28T15:17:52.583Z,12.70
2023-03-28T15:20:26.108Z,12.50
2023-03-28T15:22:57.984Z,12.40
2023-03-28T15:25:27.479Z,12.30
2023-03-28T15:27:59.369Z,12.30
2023-03-28T15:30:28.173Z,12.30
2023-03-28T15:33:05.363Z,12.20
2023-03-28T15:35:39.557Z,12.10
2023-03-28T15:38:09.484Z,12.10
2023-03-28T15:40:41.678Z,11.90
2023-03-28T15:43:37.388Z,11.70
2023-03-28T15:46:12.208Z,11.60
2023-03-28T15:48:42.875Z,11.50
2023-03-28T15:51:15.981Z,11.40
2023-03-28T15:53:46.893Z,11.40
2023-03-28T15:56:21.368Z,11.40
2023-03-28T15:58:49.837Z,11.40
2023-03-28T16:01:24.431Z,11.30
2023-03-28T16:04:24.090Z,11.30
2023-03-28T16:06:56.985Z,11.20
2023-03-28T16:09:26.380Z,11.10
2023-03-28T16:12:00.448Z,11.00
2023-03-28T16:14:47.718Z,10.90
2023-03-28T16:17:42.089Z,10.80
2023-03-28T16:20:22.536Z,10.70
2023-03-28T16:22:51.864Z,10.70
2023-03-28T16:25:20.188Z,10.80
2023-03-28T16:27:48.613Z,10.70
2023-03-28T16:30:20.950Z,10.70
2023-03-28T16:32:49.353Z,10.60
2023-03-28T16:35:19.321Z,10.60
2023-03-28T16:37:47.680Z,10.60
2023-03-28T16:40:16.696Z,10.40
2023-03-28T16:42:45.042Z,10.40
2023-03-28T16:45:14.262Z,10.40
2023-03-28T16:47:42.798Z,10.10
2023-03-28T16:50:12.122Z,9.80
2023-03-28T16:52:43.306Z,9.70
2023-03-28T16:55:13.169Z,9.50
2023-03-28T16:57:42.157Z,9.50
2023-03-28T17:00:14.148Z,9.40
2023-03-28T17:02:42.629Z,9.30
2023-03-28T17:05:11.397Z,9.20
2023-03-28T17:07:41.494Z,9.00
2023-03-28T17:10:11.608Z,8.90
2023-03-28T17:12:39.941Z,8.80
2023-03-28T17:15:10.036Z,8.60
2023-03-28T17:17:38.487Z,8.70
2023-03-28T17:20:08.339Z,8.70
2023-03-28T17:22:36.876Z,8.50
2023-03-28T17:25:07.569Z,8.60
2023-03-28T17:27:35.928Z,8.50
2023-03-28T17:30:04.877Z,8.30
2023-03-28T17:32:33.335Z,8.30
2023-03-28T17:35:01.796Z,8.30
2023-03-28T17:37:30.957Z,8.10
2023-03-28T17:39:59.497Z,7.90
2023-03-28T17:42:29.201Z,7.80
2023-03-28T17:44:58.402Z,7.80
2023-03-28T17:47:27.040Z,7.70
2023-03-28T17:49:57.072Z,7.60
2023-03-28T17:52:27.088Z,7.60
2023-03-28T17:54:55.463Z,7.50
2023-03-28T17:57:23.855Z,7.40
2023-03-28T17:59:54.589Z,7.30
2023-03-28T18:02:23.342Z,7.20
2023-03-28T18:05:03.292Z,7.00
2023-03-28T18:07:34.856Z,7.00
2023-03-28T18:10:06.536Z,6.90
2023-03-28T18:12:34.869Z,7.00
2023-03-28T18:15:06.421Z,7.00
2023-03-28T18:17:35.283Z,7.00
2023-03-28T18:20:04.535Z,6.90
2023-03-28T18:22:33.797Z,7.00
2023-03-28T18:25:03.052Z,7.10
2023-03-28T18:27:31.402Z,7.10
2023-03-28T18:30:02.002Z,7.10
2023-03-28T18:32:31.815Z,7.10
2023-03-28T18:35:00.823Z,7.10
2023-03-28T18:37:31.416Z,7.10
2023-03-28T18:40:00.295Z,7.20
2023-03-28T18:42:28.792Z,7.20
2023-03-28T18:44:57.200Z,7.30
2023-03-28T18:47:25.577Z,7.30
2023-03-28T18:49:55.303Z,7.30
2023-03-28T18:52:23.697Z,7.30
2023-03-28T18:54:51.971Z,7.30
2023-03-28T18:57:20.327Z,7.20
2023-03-28T18:59:52.566Z,7.20
2023-03-28T19:02:22.127Z,7.10
2023-03-28T19:04:50.847Z,7.10
2023-03-28T19:07:21.155Z,7.20
2023-03-28T19:09:50.163Z,7.20
2023-03-28T19:12:18.571Z,7.20
2023-03-28T19:14:46.911Z,7.10
2023-03-28T19:17:15.230Z,7.10
2023-03-28T19:19:43.528Z,7.10
2023-03-28T19:22:11.927Z,7.00
2023-03-28T19:24:41.677Z,7.00
2023-03-28T19:27:10.037Z,7.00
2023-03-28T19:29:39.487Z,7.00
2023-03-28T19:32:08.143Z,7.10
2023-03-28T19:34:36.451Z,7.10
2023-03-28T19:37:04.800Z,7.10
2023-03-28T19:39:33.375Z,7.10
2023-03-28T19:42:03.119Z,7.10
2023-03-28T19:44:31.546Z,6.90
2023-03-28T19:46:59.985Z,6.90
2023-03-28T19:49:28.335Z,7.00
2023-03-28T19:51:56.664Z,7.00
2023-03-28T19:54:25.771Z,6.90
2023-03-28T19:56:54.147Z,7.00
2023-03-28T19:59:23.888Z,7.00
2023-03-28T20:01:52.276Z,7.00
2023-03-28T20:04:21.420Z,7.00
2023-03-28T20:06:49.871Z,7.10
2023-03-28T20:09:18.311Z,7.10
2023-03-28T20:11:46.688Z,7.20
2023-03-28T20:14:20.124Z,7.20
2023-03-28T20:16:50.069Z,7.10
2023-03-28T20:19:20.020Z,7.20
2023-03-28T20:21:49.113Z,7.20
2023-03-28T20:24:18.747Z,7.30
2023-03-28T20:26:47.117Z,7.30
2023-03-28T20:29:15.427Z,7.30
2023-03-28T20:31:43.838Z,7.20
2023-03-28T20:34:13.566Z,7.20
2023-03-28T20:36:42.683Z,7.20
2023-03-28T20:39:10.985Z,7.20
2023-03-28T20:41:39.748Z,7.20
2023-03-28T20:44:08.781Z,7.20
2023-03-28T20:46:38.172Z,7.20
2023-03-28T20:49:07.899Z,7.20
2023-03-28T20:51:39.319Z,7.30
2023-03-28T20:54:07.933Z,7.20
2023-03-28T20:56:36.547Z,7.30
2023-03-28T20:59:06.090Z,7.20
2023-03-28T21:01:45.915Z,7.30
2023-03-28T21:04:14.586Z,7.30
2023-03-28T21:06:46.020Z,7.30
2023-03-28T21:09:16.301Z,7.30
2023-03-28T21:11:45.032Z,7.20
2023-03-28T21:14:14.878Z,7.30
2023-03-28T21:16:43.585Z,7.30
2023-03-28T21:19:12.077Z,7.30
2023-03-28T21:21:40.631Z,7.30
2023-03-28T21:24:10.589Z,7.40
2023-03-28T21:26:38.978Z,7.40
2023-03-28T21:29:07.328Z,7.40
2023-03-28T21:31:37.076Z,7.40
2023-03-28T21:34:05.695Z,7.30
2023-03-28T21:36:34.450Z,7.30
2023-03-28T21:39:02.926Z,7.30
2023-03-28T21:41:32.609Z,7.40
2023-03-28T21:44:01.165Z,7.40
2023-03-28T21:46:29.756Z,7.40
2023-03-28T21:48:58.103Z,7.40
2023-03-28T21:51:26.698Z,7.40
2023-03-28T21:53:55.099Z,7.40
2023-03-28T21:56:23.392Z,7.40
2023-03-28T21:58:53.440Z,7.40
2023-03-28T22:01:21.851Z,7.40
2023-03-28T22:03:50.274Z,7.40
2023-03-28T22:06:19.872Z,7.40
2023-03-28T22:08:52.229Z,7.50
2023-03-28T22:11:27.955Z,7.50
2023-03-28T22:14:02.486Z,7.40
2023-03-28T22:16:32.403Z,7.50
2023-03-28T22:19:00.995Z,7.50
2023-03-28T22:21:31.475Z,7.50
2023-03-28T22:24:00.833Z,7.40
2023-03-28T22:26:30.555Z,7.50
2023-03-28T22:29:00.520Z,7.50
2023-03-28T22:31:29.482Z,7.60
2023-03-28T22:33:58.166Z,7.60
2023-03-28T22:36:27.209Z,7.50
2023-03-28T22:38:57.008Z,7.60
2023-03-28T22:41:25.527Z,7.60
2023-03-28T22:43:53.832Z,7.70
2023-03-28T22:46:23.503Z,7.60
2023-03-28T22:48:54.585Z,7.70
2023-03-28T22:51:25.165Z,7.60
2023-03-28T22:53:54.082Z,7.60
2023-03-28T22:56:24.357Z,7.60
2023-03-28T22:58:53.960Z,7.50
2023-03-28T23:01:26.077Z,7.50
2023-03-28T23:03:54.607Z,7.60
2023-03-28T23:06:23.425Z,7.60
2023-03-28T23:08:52.046Z,7.70
2023-03-28T23:11:21.194Z,7.70
2023-03-28T23:13:49.576Z,7.70
2023-03-28T23:16:18.053Z,7.70
2023-03-28T23:18:49.916Z,7.70
2023-03-28T23:21:18.789Z,7.60
2023-03-28T23:23:47.531Z,7.60
2023-03-28T23:26:16.725Z,7.70
2023-03-28T23:28:45.059Z,7.70
2023-03-28T23:31:13.630Z,7.70
2023-03-28T23:33:41.971Z,7.80
2023-03-28T23:36:14.086Z,7.80
2023-03-28T23:38:42.727Z,7.80
2023-03-28T23:41:11.230Z,7.90
2023-03-28T23:43:39.650Z,7.90
2023-03-28T23:46:09.088Z,7.90
2023-03-28T23:48:37.756Z,7.90
2023-03-28T23:51:06.879Z,7.90
2023-03-28T23:53:36.797Z,8.00
2023-03-28T23:56:05.814Z,8.00
2023-03-28T23:58:34.151Z,8.00
